Flight Track Log - Related Links

Times and Time Zones

All times are in EDT time to prevent confusion due to time zone crossing. See the EJA125P flight status page for this flight to view local times or setup timezone preferences in your user account.

Time Position Orientation Groundspeed Altitude Reporting Facility
EDT Latitude Longitude Course Direction KTS MPH feet Rate Location/Type
Mon 10:15:05 PM 36.0400 -115.1908 85° East 177 204 4,400  Level Los Angeles Center
Mon 10:16:06 PM 35.9961 -115.2478 226° Southwest 239 275 6,100 1,984 Climbing Los Angeles Center
Mon 10:17:12 PM 35.9361 -115.2725 198° South 254 292 8,600 2,362 Climbing Los Angeles Center
Mon 10:18:13 PM 35.9231 -115.1811 100° East 279 321 11,100 2,390 Climbing Los Angeles Center
Mon 10:19:15 PM 35.9217 -115.0769 91° East 300 345 13,500 2,146 Climbing Los Angeles Center
Mon 10:20:00 PM 35.8400 -114.7672 85° East  Level FlightAware Approximate
Mon 10:20:16 PM 35.9211 -114.9714 90° East 308 354 15,500  Level Los Angeles Center
Mon 10:21:18 PM 35.9222 -114.8522 89° East 340 391 17,000 1,597 Climbing Los Angeles Center
Mon 10:22:20 PM 35.9214 -114.7275 90° East 359 413 18,800 1,659 Climbing Los Angeles Center
Mon 10:23:21 PM 35.9217 -114.5969 90° East 380 437 20,400 1,756 Climbing Los Angeles Center
Mon 10:24:23 PM 35.9231 -114.4319 89° East 400 460 22,400 1,756 Climbing Los Angeles Center
Mon 10:25:24 PM 35.9344 -114.2875 84° East 419 482 24,000 1,463 Climbing Los Angeles Center
Mon 10:26:26 PM 35.9492 -114.1383 83° East 436 502 25,400 1,317 Climbing Los Angeles Center
Mon 10:27:27 PM 35.9653 -113.9847 83° East 448 516 26,700 1,111 Climbing Los Angeles Center
Mon 10:28:41 PM 35.9800 -113.8289 83° East 455 524 27,900 1,191 Climbing Los Angeles Center
Mon 10:29:43 PM 35.9989 -113.6372 83° East 466 536 29,400 1,366 Climbing Los Angeles Center
Mon 10:30:44 PM 36.0125 -113.4739 84° East 474 545 30,700 1,171 Climbing Los Angeles Center
Mon 10:31:46 PM 36.0278 -113.3111 83° East 478 550 31,800 1,073 Climbing Los Angeles Center
Mon 10:33:00 PM 36.0523 -113.1401 84° East  Level FlightAware Approximate
Mon 10:33:43 PM 36.0594 -112.9639 84° East 486 559 33,900  Level Albuquerque Center
Mon 10:34:44 PM 36.0739 -112.7978 84° East 487 560 34,800 977 Climbing Albuquerque Center
Mon 10:35:52 PM 36.0900 -112.6006 84° East 486 559 36,000 969 Climbing Los Angeles Center
Mon 10:36:54 PM 36.1042 -112.4364 84° East 482 555 36,900 927 Climbing Los Angeles Center
Mon 10:37:55 PM 36.1178 -112.2772 84° East 472 543 37,900 780 Climbing Los Angeles Center
Mon 10:38:57 PM 36.1300 -112.1214 84° East 455 524 38,500 439 Climbing Los Angeles Center
Mon 10:39:58 PM 36.1406 -111.9983 84° East 451 519 38,800 439 Climbing Los Angeles Center
Mon 10:41:00 PM 36.1550 -111.8169 84° East 451 519 39,400 410 Climbing Los Angeles Center
Mon 10:41:55 PM 36.1661 -111.6642 85° East 452 520 39,600 259 Climbing Denver Center
Mon 10:42:56 PM 36.1781 -111.5083 85° East 456 525 39,900 244 Climbing Denver Center
Mon 10:43:58 PM 36.1897 -111.3522 85° East 457 526 40,100 195 Climbing Denver Center
Mon 10:44:59 PM 36.2003 -111.1978 85° East 454 522 40,300 244 Climbing Denver Center
Mon 10:46:01 PM 36.2128 -111.0422 84° East 455 524 40,600 341 Climbing Denver Center
Mon 10:47:02 PM 36.2267 -110.8594 85° East 449 517 41,000 197 Climbing Denver Center
Mon 10:48:03 PM 36.2353 -110.7069 86° East 446 513 41,000 -244 Level Denver Center
Mon 10:49:05 PM 36.2464 -110.5531 85° East 449 517 40,500 -732 Descending Denver Center
Mon 10:50:06 PM 36.2564 -110.3911 86° East 466 536 39,500 -1,033 Descending Denver Center
Mon 10:51:07 PM 36.2692 -110.2256 84° East 479 551 38,400 -1,073 Descending Denver Center
Mon 10:52:09 PM 36.2792 -110.0475 86° East 484 557 37,300 -1,024 Descending Denver Center
Mon 10:53:10 PM 36.2881 -109.8839 86° East 493 567 36,300 -934 Descending Denver Center
Mon 10:54:11 PM 36.2978 -109.7439 85° East 504 580 35,400 -639 Descending Denver Center
Mon 10:55:12 PM 36.3117 -109.5147 86° East 518 596 35,000 -195 Descending Denver Center
Mon 10:56:14 PM 36.3214 -109.3425 86° East 522 601 35,000  Level Denver Center
Mon 10:57:15 PM 36.3319 -109.1419 86° East 520 598 35,000  Level Denver Center
Mon 10:58:16 PM 36.3422 -108.9717 86° East 514 592 35,000  Level Denver Center
Mon 10:59:17 PM 36.3511 -108.8000 86° East 514 592 35,000  Level Denver Center
Mon 11:00:19 PM 36.3606 -108.6011 87° East 513 590 35,000  Level Denver Center
Mon 11:01:20 PM 36.3694 -108.4319 86° East 512 589 35,000  Level Denver Center
Mon 11:02:21 PM 36.3775 -108.2622 87° East 512 589 35,000  Level Denver Center
Mon 11:03:22 PM 36.3861 -108.0658 87° East 510 587 35,000  Level Denver Center
Mon 11:04:24 PM 36.3939 -107.8964 87° East 511 588 35,000  Level Denver Center
Mon 11:05:25 PM 36.4019 -107.7275 87° East 512 589 35,000  Level Denver Center
Mon 11:06:26 PM 36.4106 -107.5306 87° East 511 588 35,000  Level Denver Center
Mon 11:07:27 PM 36.4178 -107.3617 87° East 511 588 35,000  Level Denver Center
Mon 11:08:29 PM 36.4258 -107.1661 87° East 510 587 35,000  Level Denver Center
Mon 11:09:30 PM 36.4317 -106.9981 87° East 509 586 35,000  Level Denver Center
Mon 11:10:31 PM 36.4372 -106.8572 87° East 510 587 35,000  Level Denver Center
Mon 11:11:44 PM 36.4450 -106.6350 87° East 506 582 35,000  Level Denver Center
Mon 11:12:26 PM 36.4497 -106.4981 88° East 504 580 35,000  Level Albuquerque Center
Mon 11:13:27 PM 36.4569 -106.3103 87° East 492 566 35,000  Level Albuquerque Center
Mon 11:14:28 PM 36.4622 -106.1503 88° East 487 560 35,000  Level Albuquerque Center
Mon 11:15:30 PM 36.4658 -105.9906 88° East 485 558 35,000  Level Albuquerque Center
Mon 11:16:31 PM 36.4728 -105.8175 87° East 483 556 35,000  Level Albuquerque Center
Mon 11:17:32 PM 36.4758 -105.6469 89° East 489 563 35,000  Level Albuquerque Center
Mon 11:18:33 PM 36.4800 -105.4492 88° East 493 567 35,000  Level Albuquerque Center
Mon 11:19:34 PM 36.4842 -105.2869 88° East 492 566 35,000  Level Albuquerque Center
Mon 11:20:36 PM 36.4872 -105.1294 89° East 486 559 35,000  Level Albuquerque Center
Mon 11:21:37 PM 36.4903 -104.9639 89° East 478 550 35,000  Level Albuquerque Center
Mon 11:22:38 PM 36.5033 -104.8025 84° East 468 539 35,000  Level Albuquerque Center
Mon 11:23:40 PM 36.5336 -104.6081 79° East 482 555 35,000  Level Albuquerque Center
Mon 11:24:41 PM 36.5600 -104.4436 79° East 481 554 35,000  Level Albuquerque Center
Mon 11:25:42 PM 36.5842 -104.2819 79° East 475 547 35,000  Level Albuquerque Center
Mon 11:26:43 PM 36.6089 -104.1247 79° East 466 536 35,000  Level Albuquerque Center
Mon 11:27:45 PM 36.6333 -103.9664 79° East 462 532 35,000  Level Albuquerque Center
Mon 11:28:46 PM 36.6578 -103.8061 79° East 464 534 35,000  Level Albuquerque Center
Mon 11:29:47 PM 36.6806 -103.6514 80° East 463 533 35,000  Level Albuquerque Center
Mon 11:30:48 PM 36.7028 -103.5011 80° East 463 533 35,000  Level Albuquerque Center
Mon 11:31:50 PM 36.7281 -103.3269 80° East 460 529 35,000  Level Albuquerque Center
Mon 11:32:51 PM 36.7489 -103.1792 80° East 457 526 35,000  Level Albuquerque Center
Mon 11:33:52 PM 36.7747 -103.0064 79° East 456 525 35,000  Level Albuquerque Center
Mon 11:34:54 PM 36.7953 -102.8583 80° East 455 524 35,000  Level Albuquerque Center
Mon 11:35:55 PM 36.8200 -102.7094 78° East 457 526 35,000  Level Albuquerque Center
Mon 11:36:56 PM 36.8536 -102.5386 76° East 454 522 35,000  Level Albuquerque Center
Mon 11:37:57 PM 36.8803 -102.3947 77° East 457 526 35,000  Level Albuquerque Center
Mon 11:38:59 PM 36.9147 -102.2228 76° East 458 527 35,000  Level Albuquerque Center
Mon 11:40:00 PM 36.9422 -102.0772 77° East 453 521 35,000  Level Albuquerque Center
Mon 11:41:01 PM 36.9747 -101.9036 77° East 459 528 35,000  Level Albuquerque Center
Mon 11:42:02 PM 37.0008 -101.7547 78° East 459 528 35,000  Level Albuquerque Center
Mon 11:43:04 PM 37.0289 -101.6067 77° East 459 528 35,000  Level Albuquerque Center
Mon 11:44:46 PM 37.0786 -101.3347 77° East 458 527 35,000  Level Kansas City Center
Mon 11:45:47 PM 37.1097 -101.1617 77° East 459 528 35,000  Level Kansas City Center
Mon 11:46:48 PM 37.1347 -101.0178 78° East 451 519 35,000  Level Kansas City Center
Mon 11:47:49 PM 37.1606 -100.8747 77° East 445 512 35,000  Level Kansas City Center
Mon 11:48:50 PM 37.1903 -100.7042 78° East 450 518 35,000  Level Kansas City Center
Mon 11:49:51 PM 37.2167 -100.5572 77° East 453 521 35,000  Level Kansas City Center
Mon 11:50:52 PM 37.2425 -100.4092 78° East 456 525 35,000  Level Kansas City Center
Mon 11:51:52 PM 37.2722 -100.2347 78° East 458 527 35,000  Level Kansas City Center
Mon 11:52:53 PM 37.2981 -100.0850 78° East 460 529 35,000  Level Kansas City Center
Mon 11:53:54 PM 37.3283 -99.9094 78° East 463 533 35,000  Level Kansas City Center
Mon 11:54:55 PM 37.3539 -99.7561 78° East 466 536 35,000  Level Kansas City Center
Mon 11:55:56 PM 37.3786 -99.6031 78° East 468 539 35,000  Level Kansas City Center
Mon 11:56:57 PM 37.4094 -99.4267 78° East 470 541 35,000  Level Kansas City Center
Mon 11:57:58 PM 37.4347 -99.2644 79° East 472 543 35,000  Level Kansas City Center
Mon 11:58:58 PM 37.4622 -99.1044 78° East 469 540 35,000  Level Kansas City Center
Tue 12:00:01 AM 37.4881 -98.9433 79° East 471 542 35,000  Level Kansas City Center
Tue 12:01:02 AM 37.5122 -98.7828 79° East 468 539 35,000  Level Kansas City Center
Tue 12:02:03 AM 37.5361 -98.6186 80° East 475 547 35,000 -973 Level Kansas City Center
Tue 12:02:53 AM 37.5611 -98.4664 78° East 472 543 33,200 -2,189 Descending Kansas City Center
Tue 12:03:17 AM 37.5703 -98.4069 79° East 467 537 32,300 -2,028 Descending Kansas City Center
Tue 12:04:04 AM 37.5861 -98.3014 79° East 459 528 30,800 -2,444 Descending Kansas City Center
Tue 12:05:05 AM 37.6108 -98.1439 79° East 461 531 27,900 -3,556 Descending Kansas City Center
Tue 12:05:25 AM 37.6236 -98.0669 78° East 459 528 26,000 -3,836 Descending Kansas City Center
Tue 12:06:06 AM 37.6339 -97.9908 80° East 451 519 24,000 -3,900 Descending Kansas City Center
Tue 12:06:25 AM 37.6453 -97.9158 79° East 440 506 22,100 -4,623 Descending Kansas City Center
Tue 12:07:07 AM 37.6606 -97.8164 79° East 429 494 19,300 -4,033 Descending Kansas City Center
Tue 12:07:26 AM 37.6675 -97.7725 79° East 415 478 18,000 -3,700 Descending Kansas City Center
Tue 12:08:07 AM 37.6811 -97.6819 79° East 396 456 15,600 -3,738 Descending Kansas City Center
Tue 12:08:27 AM 37.6908 -97.6447 72° East 372 428 14,200 -2,557 Descending Kansas City Center
Tue 12:09:08 AM 37.7144 -97.5686 69° East 342 394 13,000 -2,000 Descending Kansas City Center
Tue 12:09:27 AM 37.7267 -97.5361 65° Northeast 303 349 12,200 -2,656 Descending Kansas City Center
Tue 12:10:09 AM 37.7464 -97.4706 69° East 309 356 10,300 -2,656 Descending Kansas City Center
Tue 12:10:28 AM 37.7589 -97.4358 66° East 300 345 9,500 -1,869 Descending Kansas City Center
Tue 12:11:10 AM 37.7803 -97.3794 64° Northeast 292 336 8,400 -1,941 Descending Kansas City Center
Tue 12:12:10 AM 37.8347 -97.3225 40° Northeast 257 296 6,200 -2,083 Descending Kansas City Center
Tue 12:13:11 AM 37.8892 -97.2683 38° Northeast 251 289 4,200 -1,426 Descending Kansas City Center
Tue 12:14:12 AM 37.9192 -97.2131 55° Northeast 233 268 3,300 -645 Descending Kansas City Center
Tue 12:15:12 AM 37.8742 -97.1903 158° South 218 251 2,900 -400 Descending Kansas City Center
Tue 12:17:00 AM 37.7476 -97.2211 90° East  Level Estimated
Tue 12:24:00 AM 37.7476 -97.2211 90° East  Level Estimated

Login

Don't have an account? Register now (free) for customized features, flight alerts, and more!